KMOX/MOX METAR and TAF weather

Enter ICAO airport designator
Station Type Date Time Source
KMOX METAR 2021/05/11 00:35 UTC NOAA

KMOX 110035Z AUTO 04005KT 10SM CLR 12/M12 A3026 RMK AO2


Station Type Date Time Source
KMOX Decoded METAR 2021/05/11 00:35 UTC NOAA

Morris, Morris Municipal Airport, MN, United States (KMOX) 45-34N 095-58W
May 10, 2021 - 08:35 PM EDT / 2021.05.11 0035 UTC
Wind: from the NE (040 degrees) at 6 MPH (5 KT):0
Visibility: 10 mile(s):0
Sky conditions: clear
Temperature: 53 F (12 C)
Dew Point: 10 F (-12 C)
Relative Humidity: 17%
Pressure (altimeter): 30.26 in. Hg (1024 hPa)
ob: KMOX 110035Z AUTO 04005KT 10SM CLR 12/M12 A3026 RMK AO2
cycle: 0

Station Type Date Time Source
KMOX TAF UTC NOAA

Error!

Example: see airport list